Time,TemperatureF,DewpointF,PressureIn,WindDirection,WindDirectionDegrees,WindSpeedMPH,WindSpeedGustMPH,Humidity,HourlyPrecipIn,Conditions,Clouds,dailyrainin,SoftwareType,DateUTC
2013-03-22 00:00:00,32.1,17.8,29.83,WNW,288,0.0,7.0,55,0.00,,---,0.00,VWS V14.01,2013-03-22 04:00:00,
2013-03-22 00:10:00,32.1,18.2,29.83,West,274,0.0,8.0,56,0.00,,---,0.00,VWS V14.01,2013-03-22 04:10:00,
2013-03-22 00:20:00,31.9,18.4,29.83,NW,308,2.0,6.0,57,0.00,,---,0.00,VWS V14.01,2013-03-22 04:20:00,
2013-03-22 00:30:00,31.6,18.9,29.84,West,260,0.0,3.0,59,0.00,,---,0.00,VWS V14.01,2013-03-22 04:30:00,
2013-03-22 00:40:00,31.3,19.4,29.84,SW,223,0.0,5.0,61,0.00,,---,0.00,VWS V14.01,2013-03-22 04:40:00,
2013-03-22 00:50:00,31.2,19.7,29.84,NNW,346,5.0,7.0,62,0.00,,---,0.00,VWS V14.01,2013-03-22 04:50:00,
2013-03-22 01:00:00,31.2,19.7,29.84,West,261,0.0,7.0,62,0.00,,---,0.00,VWS V14.01,2013-03-22 05:00:00,
2013-03-22 01:10:00,30.9,19.4,29.84,West,261,0.0,1.0,62,0.00,,---,0.00,VWS V14.01,2013-03-22 05:10:00,
2013-03-22 01:20:00,30.6,19.9,29.84,SW,219,0.0,5.0,64,0.00,,---,0.00,VWS V14.01,2013-03-22 05:20:00,
2013-03-22 01:30:00,30.3,19.6,29.85,SW,224,0.0,2.0,64,0.00,,---,0.00,VWS V14.01,2013-03-22 05:30:00,
2013-03-22 01:40:00,30.1,19.8,29.85,WSW,243,0.0,2.0,65,0.00,,---,0.00,VWS V14.01,2013-03-22 05:40:00,
2013-03-22 01:50:00,30.0,19.7,29.85,NW,313,0.0,7.0,65,0.00,,---,0.00,VWS V14.01,2013-03-22 05:50:00,
2013-03-22 02:00:00,30.0,19.7,29.85,West,261,1.0,5.0,65,0.00,,---,0.00,VWS V14.01,2013-03-22 06:00:00,
2013-03-22 02:10:00,30.0,19.7,29.85,West,271,2.0,11.0,65,0.00,,---,0.00,VWS V14.01,2013-03-22 06:10:00,
2013-03-22 02:20:00,30.0,19.3,29.85,West,260,0.0,8.0,64,0.00,,---,0.00,VWS V14.01,2013-03-22 06:20:00,
2013-03-22 02:30:00,29.8,19.1,29.85,West,275,3.0,7.0,64,0.00,,---,0.00,VWS V14.01,2013-03-22 06:30:00,
2013-03-22 02:40:00,29.8,19.1,29.85,WSW,257,0.0,7.0,64,0.00,,---,0.00,VWS V14.01,2013-03-22 06:40:00,
2013-03-22 02:50:00,29.7,19.4,29.85,West,274,2.0,7.0,65,0.00,,---,0.00,VWS V14.01,2013-03-22 06:50:00,
2013-03-22 03:00:00,29.4,19.1,29.85,WSW,247,0.0,6.0,65,0.00,,---,0.00,VWS V14.01,2013-03-22 07:00:00,
2013-03-22 03:10:00,29.1,19.2,29.85,WSW,250,0.0,3.0,66,0.00,,---,0.00,VWS V14.01,2013-03-22 07:10:00,
2013-03-22 03:20:00,29.0,19.1,29.85,NW,319,0.0,5.0,66,0.00,,---,0.00,VWS V14.01,2013-03-22 07:20:00,
2013-03-22 03:30:00,28.8,19.2,29.84,West,277,0.0,5.0,67,0.00,,---,0.00,VWS V14.01,2013-03-22 07:30:00,
2013-03-22 03:40:00,28.8,19.2,29.84,WNW,291,0.0,3.0,67,0.00,,---,0.00,VWS V14.01,2013-03-22 07:40:00,
2013-03-22 03:50:00,28.7,19.1,29.84,NW,306,0.0,2.0,67,0.00,,---,0.00,VWS V14.01,2013-03-22 07:50:00,
2013-03-22 04:00:00,28.2,19.0,29.84,NW,306,0.0,0.0,68,0.00,,---,0.00,VWS V14.01,2013-03-22 08:00:00,
2013-03-22 04:10:00,28.1,18.9,29.84,WNW,302,0.0,0.0,68,0.00,,---,0.00,VWS V14.01,2013-03-22 08:10:00,
2013-03-22 04:20:00,27.9,18.7,29.84,WNW,284,0.0,2.0,68,0.00,,---,0.00,VWS V14.01,2013-03-22 08:20:00,
2013-03-22 04:30:00,27.9,19.1,29.84,WSW,237,1.0,4.0,69,0.00,,---,0.00,VWS V14.01,2013-03-22 08:30:00,
2013-03-22 04:40:00,27.8,19.0,29.84,WSW,237,0.0,1.0,69,0.00,,---,0.00,VWS V14.01,2013-03-22 08:40:00,
2013-03-22 04:50:00,27.6,19.1,29.85,WSW,237,0.0,0.0,70,0.00,,---,0.00,VWS V14.01,2013-03-22 08:50:00,
2013-03-22 05:00:00,27.5,19.0,29.86,WSW,237,0.0,0.0,70,0.00,,---,0.00,VWS V14.01,2013-03-22 09:00:00,
2013-03-22 05:10:00,27.5,18.7,29.86,WSW,237,0.0,0.0,69,0.00,,---,0.00,VWS V14.01,2013-03-22 09:10:00,
2013-03-22 05:20:00,27.3,19.1,29.86,WSW,237,0.0,0.0,71,0.00,,---,0.00,VWS V14.01,2013-03-22 09:20:00,
2013-03-22 05:30:00,27.2,18.7,29.87,WSW,237,0.0,0.0,70,0.00,,---,0.00,VWS V14.01,2013-03-22 09:30:00,
2013-03-22 05:40:00,27.0,18.2,29.87,WSW,237,0.0,0.0,69,0.00,,---,0.00,VWS V14.01,2013-03-22 09:40:00,
2013-03-22 05:50:00,26.9,18.8,29.87,WSW,237,0.0,0.0,71,0.00,,---,0.00,VWS V14.01,2013-03-22 09:50:00,
2013-03-22 06:00:00,26.4,19.2,29.88,WSW,237,0.0,0.0,74,0.00,,---,0.00,VWS V14.01,2013-03-22 10:00:00,
2013-03-22 06:10:00,26.1,19.3,29.88,WSW,237,0.0,0.0,75,0.00,,---,0.00,VWS V14.01,2013-03-22 10:10:00,
2013-03-22 06:20:00,25.8,19.3,29.89,WSW,237,0.0,0.0,76,0.00,,---,0.00,VWS V14.01,2013-03-22 10:20:00,
2013-03-22 06:30:00,25.6,19.4,29.89,WSW,237,0.0,0.0,77,0.00,,---,0.00,VWS V14.01,2013-03-22 10:30:00,
2013-03-22 06:40:00,25.6,19.1,29.89,WSW,237,0.0,0.0,76,0.00,,---,0.00,VWS V14.01,2013-03-22 10:40:00,
2013-03-22 06:50:00,25.7,18.9,29.90,WSW,237,0.0,0.0,75,0.00,,---,0.00,VWS V14.01,2013-03-22 10:50:00,
2013-03-22 07:00:00,25.8,18.7,29.90,WSW,237,0.0,0.0,74,0.00,,---,0.00,VWS V14.01,2013-03-22 11:00:00,
2013-03-22 07:10:00,25.8,19.6,29.90,WSW,237,0.0,0.0,77,0.00,,---,0.00,VWS V14.01,2013-03-22 11:10:00,
2013-03-22 07:20:00,25.6,20.3,29.91,WSW,237,0.0,0.0,80,0.00,,---,0.00,VWS V14.01,2013-03-22 11:20:00,
2013-03-22 07:30:00,25.3,20.0,29.92,WSW,237,0.0,0.0,80,0.00,,---,0.00,VWS V14.01,2013-03-22 11:30:00,
2013-03-22 07:40:00,25.3,19.4,29.92,WSW,237,0.0,0.0,78,0.00,,---,0.00,VWS V14.01,2013-03-22 11:40:00,
2013-03-22 07:50:00,25.6,19.4,29.92,WSW,237,0.0,0.0,77,0.00,,---,0.00,VWS V14.01,2013-03-22 11:50:00,
2013-03-22 08:00:00,26.0,19.8,29.92,WSW,237,0.0,0.0,77,0.00,,---,0.00,VWS V14.01,2013-03-22 12:00:00,
2013-03-22 08:10:00,26.3,20.4,29.92,WSW,237,0.0,0.0,78,0.00,,---,0.00,VWS V14.01,2013-03-22 12:10:00,
2013-03-22 08:20:00,26.9,19.4,29.93,SW,219,0.0,0.0,73,0.00,,---,0.00,VWS V14.01,2013-03-22 12:20:00,
2013-03-22 08:30:00,27.8,19.6,29.93,SW,227,0.0,0.0,71,0.00,,---,0.00,VWS V14.01,2013-03-22 12:30:00,
2013-03-22 08:40:00,28.7,19.8,29.93,SW,227,0.0,1.0,69,0.00,,---,0.00,VWS V14.01,2013-03-22 12:40:00,
2013-03-22 08:50:00,29.5,20.3,29.94,WSW,246,2.0,4.0,68,0.00,,---,0.00,VWS V14.01,2013-03-22 12:50:00,
2013-03-22 09:00:00,30.0,20.0,29.94,West,272,0.0,5.0,66,0.00,,---,0.00,VWS V14.01,2013-03-22 13:00:00,
2013-03-22 09:10:00,30.9,19.8,29.94,West,263,1.0,7.0,63,0.00,,---,0.00,VWS V14.01,2013-03-22 13:10:00,
2013-03-22 09:20:00,31.3,19.4,29.94,West,260,0.0,7.0,61,0.00,,---,0.00,VWS V14.01,2013-03-22 13:20:00,
2013-03-22 09:30:00,31.9,19.6,29.93,WSW,248,0.0,6.0,60,0.00,,---,0.00,VWS V14.01,2013-03-22 13:30:00,
2013-03-22 09:40:00,32.9,20.2,29.93,West,275,0.0,5.0,59,0.00,,---,0.00,VWS V14.01,2013-03-22 13:40:00,
2013-03-22 09:50:00,33.8,20.2,29.93,WNW,292,0.0,5.0,57,0.00,,---,0.00,VWS V14.01,2013-03-22 13:50:00,
2013-03-22 10:00:00,34.1,20.1,29.94,SW,236,0.0,6.0,56,0.00,,---,0.00,VWS V14.01,2013-03-22 14:00:00,
2013-03-22 10:10:00,35.0,21.3,29.94,NW,308,0.0,5.0,57,0.00,,---,0.00,VWS V14.01,2013-03-22 14:10:00,
2013-03-22 10:20:00,35.5,20.5,29.93,WSW,247,0.0,6.0,54,0.00,,---,0.00,VWS V14.01,2013-03-22 14:20:00,
2013-03-22 10:30:00,36.2,20.7,29.93,South,175,0.0,4.0,53,0.00,,---,0.00,VWS V14.01,2013-03-22 14:30:00,
2013-03-22 10:40:00,36.8,21.3,29.93,West,270,0.0,5.0,53,0.00,,---,0.00,VWS V14.01,2013-03-22 14:40:00,
2013-03-22 10:50:00,37.6,21.1,29.93,South,181,0.0,3.0,51,0.00,,---,0.00,VWS V14.01,2013-03-22 14:50:00,
2013-03-22 11:00:00,38.5,21.5,29.93,West,265,0.0,4.0,50,0.00,,---,0.00,VWS V14.01,2013-03-22 15:00:00,
2013-03-22 11:10:00,39.1,21.1,29.93,WSW,239,0.0,0.0,48,0.00,,---,0.00,VWS V14.01,2013-03-22 15:10:00,
2013-03-22 11:20:00,38.9,20.4,29.93,West,278,0.0,6.0,47,0.00,,---,0.00,VWS V14.01,2013-03-22 15:20:00,
2013-03-22 11:30:00,39.1,22.5,29.92,NE,44,0.0,7.0,51,0.00,,---,0.00,VWS V14.01,2013-03-22 15:30:00,
2013-03-22 11:40:00,40.3,21.2,29.92,West,260,0.0,5.0,46,0.00,,---,0.00,VWS V14.01,2013-03-22 15:40:00,
2013-03-22 11:50:00,40.6,19.9,29.92,West,281,0.0,6.0,43,0.00,,---,0.00,VWS V14.01,2013-03-22 15:50:00,
2013-03-22 12:00:00,41.1,20.3,29.92,WSW,250,0.0,3.0,43,0.00,,---,0.00,VWS V14.01,2013-03-22 16:00:00,
2013-03-22 12:10:00,42.2,21.3,29.92,WNW,282,4.0,5.0,43,0.00,,---,0.00,VWS V14.01,2013-03-22 16:10:00,
2013-03-22 12:20:00,42.2,21.3,29.91,West,267,0.0,5.0,43,0.00,,---,0.00,VWS V14.01,2013-03-22 16:20:00,
2013-03-22 12:30:00,43.6,21.5,29.90,SSE,158,2.0,6.0,41,0.00,,---,0.00,VWS V14.01,2013-03-22 16:30:00,
2013-03-22 12:40:00,43.5,21.4,29.90,WNW,289,0.0,3.0,41,0.00,,---,0.00,VWS V14.01,2013-03-22 16:40:00,
2013-03-22 12:50:00,44.3,21.5,29.90,WSW,247,6.0,6.0,40,0.00,,---,0.00,VWS V14.01,2013-03-22 16:50:00,
2013-03-22 13:00:00,44.3,21.5,29.89,West,274,0.0,10.0,40,0.00,,---,0.00,VWS V14.01,2013-03-22 17:00:00,
2013-03-22 13:10:00,44.8,19.5,29.89,West,270,0.0,6.0,36,0.00,,---,0.00,VWS V14.01,2013-03-22 17:10:00,
2013-03-22 13:20:00,45.2,20.5,29.89,WNW,295,1.0,8.0,37,0.00,,---,0.00,VWS V14.01,2013-03-22 17:20:00,
2013-03-22 13:30:00,46.0,21.8,29.88,SW,229,0.0,6.0,38,0.00,,---,0.00,VWS V14.01,2013-03-22 17:30:00,
2013-03-22 13:40:00,46.0,21.2,29.88,SSW,203,2.0,10.0,37,0.00,,---,0.00,VWS V14.01,2013-03-22 17:40:00,
2013-03-22 13:50:00,46.8,21.9,29.87,WSW,246,1.0,5.0,37,0.00,,---,0.00,VWS V14.01,2013-03-22 17:50:00,
2013-03-22 14:00:00,47.7,20.7,29.86,WSW,254,2.0,7.0,34,0.00,,---,0.00,VWS V14.01,2013-03-22 18:00:00,
2013-03-22 14:10:00,47.1,21.5,29.86,NNW,340,3.0,6.0,36,0.00,,---,0.00,VWS V14.01,2013-03-22 18:10:00,
2013-03-22 14:20:00,47.9,21.6,29.86,WSW,257,1.0,7.0,35,0.00,,---,0.00,VWS V14.01,2013-03-22 18:20:00,
2013-03-22 14:30:00,48.0,19.6,29.85,WSW,254,0.0,10.0,32,0.00,,---,0.00,VWS V14.01,2013-03-22 18:30:00,
2013-03-22 14:40:00,48.0,20.3,29.85,SSW,202,0.0,7.0,33,0.00,,---,0.00,VWS V14.01,2013-03-22 18:40:00,
2013-03-22 14:50:00,48.8,21.7,29.84,West,265,1.0,6.0,34,0.00,,---,0.00,VWS V14.01,2013-03-22 18:50:00,
2013-03-22 15:00:00,49.1,20.5,29.83,WSW,239,0.0,13.0,32,0.00,,---,0.00,VWS V14.01,2013-03-22 19:00:00,
2013-03-22 15:10:00,50.1,22.1,29.83,WNW,285,0.0,8.0,33,0.00,,---,0.00,VWS V14.01,2013-03-22 19:10:00,
2013-03-22 15:20:00,50.8,23.5,29.82,SE,140,0.0,6.0,34,0.00,,---,0.00,VWS V14.01,2013-03-22 19:20:00,
2013-03-22 15:30:00,51.0,23.6,29.82,SSE,168,0.0,5.0,34,0.00,,---,0.00,VWS V14.01,2013-03-22 19:30:00,
2013-03-22 15:40:00,50.8,22.8,29.82,SSE,168,0.0,5.0,33,0.00,,---,0.00,VWS V14.01,2013-03-22 19:40:00,
2013-03-22 15:50:00,50.2,22.9,29.82,SW,219,0.0,6.0,34,0.00,,---,0.00,VWS V14.01,2013-03-22 19:50:00,
2013-03-22 16:00:00,51.1,24.4,29.82,West,260,3.0,6.0,35,0.00,,---,0.00,VWS V14.01,2013-03-22 20:00:00,
2013-03-22 16:10:00,51.3,22.5,29.82,South,189,0.0,6.0,32,0.00,,---,0.00,VWS V14.01,2013-03-22 20:10:00,
2013-03-22 16:20:00,51.3,22.5,29.82,SSE,161,0.0,6.0,32,0.00,,---,0.00,VWS V14.01,2013-03-22 20:20:00,
2013-03-22 16:30:00,51.4,23.3,29.82,West,267,0.0,6.0,33,0.00,,---,0.00,VWS V14.01,2013-03-22 20:30:00,
2013-03-22 16:40:00,52.0,22.3,29.82,WSW,248,0.0,7.0,31,0.00,,---,0.00,VWS V14.01,2013-03-22 20:40:00,
2013-03-22 16:50:00,51.6,23.5,29.82,SSE,165,2.0,10.0,33,0.00,,---,0.00,VWS V14.01,2013-03-22 20:50:00,
2013-03-22 17:00:00,51.7,24.3,29.82,WNW,288,0.0,6.0,34,0.00,,---,0.00,VWS V14.01,2013-03-22 21:00:00,
2013-03-22 17:10:00,52.0,23.1,29.82,WSW,244,2.0,5.0,32,0.00,,---,0.00,VWS V14.01,2013-03-22 21:10:00,
2013-03-22 17:20:00,51.6,23.5,29.82,East,82,0.0,0.0,33,0.00,,---,0.00,VWS V14.01,2013-03-22 21:20:00,
2013-03-22 17:30:00,51.6,23.5,29.82,WSW,258,0.0,4.0,33,0.00,,---,0.00,VWS V14.01,2013-03-22 21:30:00,
2013-03-22 17:40:00,51.4,25.4,29.82,West,275,0.0,5.0,36,0.00,,---,0.00,VWS V14.01,2013-03-22 21:40:00,
2013-03-22 17:50:00,51.3,24.6,29.82,SW,217,0.0,7.0,35,0.00,,---,0.00,VWS V14.01,2013-03-22 21:50:00,
2013-03-22 18:00:00,50.8,24.1,29.82,SW,217,3.0,8.0,35,0.00,,---,0.00,VWS V14.01,2013-03-22 22:00:00,
2013-03-22 18:10:00,50.7,24.1,29.82,South,174,0.0,6.0,35,0.00,,---,0.00,VWS V14.01,2013-03-22 22:10:00,
2013-03-22 18:20:00,50.5,24.6,29.82,WSW,248,2.0,6.0,36,0.00,,---,0.00,VWS V14.01,2013-03-22 22:20:00,
2013-03-22 18:30:00,50.4,25.8,29.82,WSW,240,0.0,5.0,38,0.00,,---,0.00,VWS V14.01,2013-03-22 22:30:00,
2013-03-22 18:40:00,50.2,25.0,29.82,SW,226,2.0,6.0,37,0.00,,---,0.00,VWS V14.01,2013-03-22 22:40:00,
2013-03-22 18:50:00,49.9,25.3,29.82,West,265,0.0,7.0,38,0.00,,---,0.00,VWS V14.01,2013-03-22 22:50:00,
2013-03-22 19:00:00,49.5,25.6,29.82,West,271,0.0,4.0,39,0.00,,---,0.00,VWS V14.01,2013-03-22 23:00:00,
2013-03-22 19:10:00,49.2,25.9,29.82,WSW,254,0.0,0.0,40,0.00,,---,0.00,VWS V14.01,2013-03-22 23:10:00,
2013-03-22 19:20:00,48.9,25.0,29.83,WSW,250,0.0,0.0,39,0.00,,---,0.00,VWS V14.01,2013-03-22 23:20:00,
2013-03-22 19:30:00,48.3,25.7,29.84,WSW,250,0.0,0.0,41,0.00,,---,0.00,VWS V14.01,2013-03-22 23:30:00,
2013-03-22 19:40:00,47.9,25.4,29.84,WSW,250,0.0,0.0,41,0.00,,---,0.00,VWS V14.01,2013-03-22 23:40:00,
2013-03-22 19:50:00,47.4,26.0,29.84,WSW,250,0.0,0.0,43,0.00,,---,0.00,VWS V14.01,2013-03-22 23:50:00,
2013-03-22 20:00:00,46.8,25.5,29.84,WSW,250,0.0,0.0,43,0.00,,---,0.00,VWS V14.01,2013-03-23 00:00:00,
2013-03-22 20:10:00,46.4,25.7,29.84,WSW,250,0.0,0.0,44,0.00,,---,0.00,VWS V14.01,2013-03-23 00:10:00,
2013-03-22 20:20:00,45.8,25.7,29.84,WSW,250,0.0,0.0,45,0.00,,---,0.00,VWS V14.01,2013-03-23 00:20:00,
2013-03-22 20:30:00,45.4,25.9,29.84,WSW,250,0.0,0.0,46,0.00,,---,0.00,VWS V14.01,2013-03-23 00:30:00,
2013-03-22 20:40:00,45.1,25.6,29.84,WSW,250,0.0,0.0,46,0.00,,---,0.00,VWS V14.01,2013-03-23 00:40:00,
2013-03-22 20:50:00,44.6,25.6,29.84,WSW,250,0.0,0.0,47,0.00,,---,0.00,VWS V14.01,2013-03-23 00:50:00,
2013-03-22 21:00:00,44.3,25.4,29.85,WSW,250,0.0,0.0,47,0.00,,---,0.00,VWS V14.01,2013-03-23 01:00:00,
2013-03-22 21:10:00,44.3,25.4,29.85,WSW,250,0.0,0.0,47,0.00,,---,0.00,VWS V14.01,2013-03-23 01:10:00,
2013-03-22 21:20:00,44.1,25.7,29.85,WSW,250,0.0,0.0,48,0.00,,---,0.00,VWS V14.01,2013-03-23 01:20:00,
2013-03-22 21:30:00,43.9,25.5,29.85,WSW,250,0.0,0.0,48,0.00,,---,0.00,VWS V14.01,2013-03-23 01:30:00,
2013-03-22 21:40:00,43.6,25.2,29.85,WSW,250,0.0,0.0,48,0.00,,---,0.00,VWS V14.01,2013-03-23 01:40:00,
2013-03-22 21:50:00,43.5,25.6,29.86,WSW,250,0.0,0.0,49,0.00,,---,0.00,VWS V14.01,2013-03-23 01:50:00,
2013-03-22 22:00:00,43.2,25.8,29.86,WSW,250,0.0,0.0,50,0.00,,---,0.00,VWS V14.01,2013-03-23 02:00:00,
2013-03-22 22:10:00,42.9,26.5,29.86,SW,233,0.0,0.0,52,0.00,,---,0.00,VWS V14.01,2013-03-23 02:10:00,
2013-03-22 22:20:00,42.6,26.7,29.86,SW,233,0.0,0.0,53,0.00,,---,0.00,VWS V14.01,2013-03-23 02:20:00,
2013-03-22 22:30:00,42.6,26.7,29.87,SSE,160,0.0,0.0,53,0.00,,---,0.00,VWS V14.01,2013-03-23 02:30:00,
2013-03-22 22:40:00,42.6,27.6,29.87,SSE,155,0.0,0.0,55,0.00,,---,0.00,VWS V14.01,2013-03-23 02:40:00,
2013-03-22 22:50:00,42.3,27.3,29.87,SSE,155,0.0,0.0,55,0.00,,---,0.00,VWS V14.01,2013-03-23 02:50:00,
2013-03-22 23:00:00,42.3,27.3,29.87,SSE,150,0.0,0.0,55,0.00,,---,0.00,VWS V14.01,2013-03-23 03:00:00,
2013-03-22 23:10:00,42.5,27.5,29.87,South,175,0.0,0.0,55,0.00,,---,0.00,VWS V14.01,2013-03-23 03:10:00,
2013-03-22 23:20:00,42.5,27.5,29.87,South,175,0.0,0.0,55,0.00,,---,0.00,VWS V14.01,2013-03-23 03:20:00,
2013-03-22 23:30:00,42.3,27.7,29.87,South,175,0.0,0.0,56,0.00,,---,0.00,VWS V14.01,2013-03-23 03:30:00,
2013-03-22 23:40:00,42.2,27.6,29.87,South,175,0.0,0.0,56,0.00,,---,0.00,VWS V14.01,2013-03-23 03:40:00,
2013-03-22 23:50:00,42.1,28.0,29.87,South,175,0.0,0.0,57,0.00,,---,0.00,VWS V14.01,2013-03-23 03:50:00,